createdAt,value
2023-05-09T00:02:29.651Z,15.20
2023-05-09T00:05:32.812Z,12.73
2023-05-09T00:08:37.993Z,12.87
2023-05-09T00:11:40.873Z,13.33
2023-05-09T00:14:45.409Z,13.97
2023-05-09T00:17:48.676Z,14.40
2023-05-09T00:20:51.754Z,13.83
2023-05-09T00:23:55.965Z,13.93
2023-05-09T00:26:58.798Z,13.70
2023-05-09T00:30:01.625Z,13.00
2023-05-09T00:33:04.518Z,11.30
2023-05-09T00:36:08.031Z,13.17
2023-05-09T00:39:12.536Z,12.00
2023-05-09T00:42:15.446Z,14.00
2023-05-09T00:45:18.305Z,12.63
2023-05-09T00:48:22.297Z,13.77
2023-05-09T00:51:25.780Z,12.47
2023-05-09T00:54:30.491Z,12.90
2023-05-09T00:57:33.388Z,12.73
2023-05-09T01:00:36.707Z,13.23
2023-05-09T01:03:41.131Z,13.40
2023-05-09T01:06:53.577Z,12.87
2023-05-09T01:10:07.207Z,12.40
2023-05-09T01:13:19.364Z,13.30
2023-05-09T01:16:28.658Z,12.47
2023-05-09T01:19:53.111Z,12.43
2023-05-09T01:23:06.719Z,11.33
2023-05-09T01:26:17.095Z,11.50
2023-05-09T01:29:37.548Z,13.23
2023-05-09T01:32:43.637Z,12.07
2023-05-09T01:35:50.850Z,12.53
2023-05-09T01:38:54.727Z,11.30
2023-05-09T01:42:02.154Z,11.27
2023-05-09T01:45:07.814Z,11.27
2023-05-09T01:48:11.476Z,11.80
2023-05-09T01:51:16.309Z,12.47
2023-05-09T01:54:20.178Z,12.03
2023-05-09T01:57:24.709Z,13.37
2023-05-09T02:00:29.791Z,11.80
2023-05-09T02:03:34.008Z,12.30
2023-05-09T02:06:37.835Z,13.23
2023-05-09T02:09:42.010Z,13.07
2023-05-09T02:12:44.956Z,12.33
2023-05-09T02:15:49.189Z,12.80
2023-05-09T02:18:52.724Z,12.47
2023-05-09T02:21:55.613Z,12.57
2023-05-09T02:24:58.515Z,11.20
2023-05-09T02:28:02.678Z,12.23
2023-05-09T02:31:07.490Z,12.27
2023-05-09T02:34:11.932Z,12.60
2023-05-09T02:37:15.171Z,11.33
2023-05-09T02:40:19.097Z,12.53
2023-05-09T02:43:22.065Z,12.87
2023-05-09T02:46:26.582Z,13.60
2023-05-09T02:49:32.377Z,12.50
2023-05-09T02:52:35.820Z,12.90
2023-05-09T02:55:38.709Z,12.97
2023-05-09T02:58:41.533Z,13.00
2023-05-09T03:01:45.806Z,13.70
2023-05-09T03:04:48.696Z,14.43
2023-05-09T03:07:51.630Z,13.80
2023-05-09T03:10:54.796Z,13.60
2023-05-09T03:13:57.672Z,13.07
2023-05-09T03:17:01.888Z,15.03
2023-05-09T03:20:05.589Z,13.73
2023-05-09T03:23:08.451Z,15.20
2023-05-09T03:26:11.643Z,14.97
2023-05-09T03:29:14.475Z,14.53
2023-05-09T03:32:18.722Z,14.83
2023-05-09T03:35:21.811Z,16.37
2023-05-09T03:38:24.731Z,15.03
2023-05-09T03:41:27.574Z,17.53
2023-05-09T03:44:30.435Z,15.90
2023-05-09T03:47:34.714Z,17.20
2023-05-09T03:50:37.871Z,18.00
2023-05-09T03:53:40.757Z,18.33
2023-05-09T03:56:43.615Z,20.13
2023-05-09T03:59:46.456Z,19.03
2023-05-09T04:02:51.030Z,19.87
2023-05-09T04:05:54.460Z,18.93
2023-05-09T04:08:57.418Z,19.03
2023-05-09T04:12:00.264Z,21.53
2023-05-09T04:15:03.619Z,21.27
2023-05-09T04:18:08.427Z,20.30
2023-05-09T04:21:11.414Z,18.70
2023-05-09T04:24:14.252Z,18.30
2023-05-09T04:27:17.191Z,19.70
2023-05-09T04:30:20.973Z,20.93
2023-05-09T04:33:25.141Z,19.90
2023-05-09T04:36:28.939Z,19.77
2023-05-09T04:39:31.776Z,18.77
2023-05-09T04:42:35.017Z,20.00
2023-05-09T04:45:38.224Z,18.77
2023-05-09T04:48:42.469Z,19.73
2023-05-09T04:51:45.322Z,16.20
2023-05-09T04:54:48.147Z,14.70
2023-05-09T04:57:51.040Z,13.53
2023-05-09T05:00:54.115Z,13.60
2023-05-09T05:03:58.313Z,12.60
2023-05-09T05:07:01.142Z,11.83
2023-05-09T05:10:04.793Z,12.87
2023-05-09T05:13:07.724Z,12.63
2023-05-09T05:16:10.664Z,12.30
2023-05-09T05:19:14.879Z,11.63
2023-05-09T05:22:17.834Z,12.37
2023-05-09T05:25:21.075Z,11.27
2023-05-09T05:28:23.961Z,12.57
2023-05-09T05:31:26.872Z,10.83
2023-05-09T05:34:31.230Z,10.63
2023-05-09T05:37:34.162Z,11.57
2023-05-09T05:40:37.002Z,12.23
2023-05-09T05:43:39.844Z,10.97
2023-05-09T05:46:42.667Z,11.30
2023-05-09T05:49:46.844Z,11.67
2023-05-09T05:52:49.670Z,11.77
2023-05-09T05:55:52.553Z,10.70
2023-05-09T05:58:55.860Z,11.57
2023-05-09T06:01:58.688Z,11.87
2023-05-09T06:05:03.817Z,11.17
2023-05-09T06:08:07.554Z,11.73
2023-05-09T06:11:10.367Z,10.10
2023-05-09T06:14:13.191Z,10.63
2023-05-09T06:17:16.701Z,12.10
2023-05-09T06:20:21.479Z,11.67
2023-05-09T06:23:24.459Z,10.40
2023-05-09T06:26:27.345Z,11.73
2023-05-09T06:29:30.164Z,11.93
2023-05-09T06:32:33.082Z,12.53
2023-05-09T06:35:37.317Z,11.47
2023-05-09T06:38:40.173Z,12.37
2023-05-09T06:41:43.011Z,11.17
2023-05-09T06:44:46.021Z,11.83
2023-05-09T06:47:49.015Z,13.40
2023-05-09T06:50:53.358Z,11.93
2023-05-09T06:53:56.302Z,11.53
2023-05-09T06:56:59.246Z,11.97
2023-05-09T07:00:02.283Z,11.90
2023-05-09T07:03:07.362Z,11.97
2023-05-09T07:06:11.631Z,11.93
2023-05-09T07:09:15.368Z,12.70
2023-05-09T07:12:18.247Z,12.07
2023-05-09T07:15:36.780Z,10.97
2023-05-09T07:18:43.880Z,11.33
2023-05-09T07:21:48.065Z,12.77
2023-05-09T07:24:51.812Z,12.17
2023-05-09T07:27:54.667Z,12.43
2023-05-09T07:30:57.713Z,12.37
2023-05-09T07:34:00.603Z,11.77
2023-05-09T07:37:04.896Z,11.63
2023-05-09T07:40:09.150Z,11.67
2023-05-09T07:43:12.042Z,11.57
2023-05-09T07:46:15.053Z,11.07
2023-05-09T07:49:18.596Z,12.13
2023-05-09T07:52:22.806Z,10.73
2023-05-09T07:55:25.703Z,12.47
2023-05-09T07:58:28.657Z,12.40
2023-05-09T08:01:31.680Z,12.27
2023-05-09T08:04:37.694Z,12.63
2023-05-09T08:07:42.083Z,11.57
2023-05-09T08:10:45.829Z,12.00
2023-05-09T08:13:48.729Z,12.07
2023-05-09T08:16:51.585Z,11.43
2023-05-09T08:19:54.490Z,10.83
2023-05-09T08:22:58.720Z,11.00
2023-05-09T08:26:02.062Z,12.33
2023-05-09T08:29:05.483Z,11.70
2023-05-09T08:32:08.796Z,11.60
2023-05-09T08:35:12.649Z,11.00
2023-05-09T08:38:17.461Z,10.97
2023-05-09T08:41:23.426Z,11.73
2023-05-09T08:44:27.042Z,11.27
2023-05-09T08:47:31.251Z,10.50
2023-05-09T08:50:35.626Z,10.57
2023-05-09T08:53:40.514Z,12.13
2023-05-09T08:56:43.725Z,11.77
2023-05-09T08:59:47.013Z,12.70
2023-05-09T09:02:50.718Z,11.73
2023-05-09T09:05:55.592Z,11.20
2023-05-09T09:09:00.378Z,9.90
2023-05-09T09:12:04.801Z,11.33
2023-05-09T09:15:15.943Z,10.73
2023-05-09T09:18:23.781Z,11.93
2023-05-09T09:21:27.377Z,10.57
2023-05-09T09:24:32.420Z,10.07
2023-05-09T09:27:35.591Z,10.50
2023-05-09T09:30:44.933Z,10.40
2023-05-09T09:33:48.060Z,10.73
2023-05-09T09:36:51.559Z,9.47
2023-05-09T09:39:59.186Z,9.40
2023-05-09T09:43:02.423Z,8.20
2023-05-09T09:46:06.218Z,10.00
2023-05-09T09:49:10.665Z,8.07
2023-05-09T09:52:13.943Z,9.87
2023-05-09T09:55:18.664Z,9.47
2023-05-09T09:58:24.796Z,9.77
2023-05-09T10:01:28.080Z,10.17
2023-05-09T10:04:32.097Z,9.53
2023-05-09T10:07:36.058Z,8.23
2023-05-09T10:10:40.658Z,8.77
2023-05-09T10:13:44.588Z,9.45
2023-05-09T10:16:48.753Z,9.13
2023-05-09T10:19:52.829Z,8.73
2023-05-09T10:22:57.869Z,8.17
2023-05-09T10:26:07.415Z,7.85
2023-05-09T10:29:12.572Z,8.90
2023-05-09T10:32:18.250Z,9.32
2023-05-09T10:35:22.272Z,7.67
2023-05-09T10:38:25.568Z,8.15
2023-05-09T10:41:30.268Z,10.15
2023-05-09T10:44:34.754Z,8.57
2023-05-09T10:47:38.963Z,9.77
2023-05-09T10:50:42.651Z,7.43
2023-05-09T10:53:46.775Z,8.85
2023-05-09T10:56:51.528Z,9.98
2023-05-09T10:59:55.084Z,8.00
2023-05-09T11:03:07.938Z,8.68
2023-05-09T11:06:11.388Z,9.18
2023-05-09T11:09:28.467Z,9.48
2023-05-09T11:12:33.413Z,7.40
2023-05-09T11:15:37.903Z,8.75
2023-05-09T11:18:54.224Z,8.35
2023-05-09T11:22:05.854Z,8.55
2023-05-09T11:25:10.648Z,9.10
2023-05-09T11:28:28.161Z,9.50
2023-05-09T11:31:31.136Z,7.97
2023-05-09T11:34:34.771Z,9.57
2023-05-09T11:37:46.230Z,8.90
2023-05-09T11:40:49.436Z,8.90
2023-05-09T11:43:53.803Z,8.98
2023-05-09T11:46:57.170Z,9.45
2023-05-09T11:50:00.113Z,11.13
2023-05-09T11:53:03.383Z,10.10
2023-05-09T11:56:07.112Z,10.38
2023-05-09T11:59:14.601Z,9.95
2023-05-09T12:02:17.723Z,10.73
2023-05-09T12:05:22.782Z,9.07
2023-05-09T12:08:27.015Z,9.15
2023-05-09T12:11:32.260Z,9.45
2023-05-09T12:14:36.593Z,7.32
2023-05-09T12:17:39.888Z,10.57
2023-05-09T12:20:43.926Z,9.65
2023-05-09T12:23:49.744Z,9.98
2023-05-09T12:26:54.295Z,10.80
2023-05-09T12:29:59.026Z,11.77
2023-05-09T12:33:02.786Z,9.10
2023-05-09T12:36:07.995Z,9.50
2023-05-09T12:39:11.367Z,9.27
2023-05-09T12:42:14.839Z,8.60
2023-05-09T12:45:19.441Z,10.07
2023-05-09T12:48:24.170Z,10.02
2023-05-09T12:51:27.442Z,10.25
2023-05-09T12:54:31.424Z,9.32
2023-05-09T12:57:34.335Z,11.43
2023-05-09T13:00:45.962Z,10.48
2023-05-09T13:03:53.073Z,8.40
2023-05-09T13:06:57.704Z,6.80
2023-05-09T13:10:01.591Z,10.48
2023-05-09T13:13:05.893Z,9.38
2023-05-09T13:16:11.190Z,9.55
2023-05-09T13:19:16.330Z,9.60
2023-05-09T13:22:19.308Z,8.82
2023-05-09T13:25:22.223Z,9.23
2023-05-09T13:28:25.481Z,10.52
2023-05-09T13:31:29.658Z,10.60
2023-05-09T13:34:32.662Z,10.57
2023-05-09T13:37:35.681Z,9.93
2023-05-09T13:40:39.114Z,9.80
2023-05-09T13:43:42.631Z,10.65
2023-05-09T13:46:47.364Z,10.88
2023-05-09T13:49:50.551Z,9.98
2023-05-09T13:52:53.845Z,9.30
2023-05-09T13:55:57.064Z,9.57
2023-05-09T13:59:00.380Z,8.25
2023-05-09T14:02:05.341Z,9.68
2023-05-09T14:05:08.935Z,10.05
2023-05-09T14:08:12.254Z,9.68
2023-05-09T14:11:15.589Z,10.80
2023-05-09T14:14:18.989Z,9.35
2023-05-09T14:17:23.655Z,9.57
2023-05-09T14:20:27.429Z,9.32
2023-05-09T14:23:30.681Z,8.73
2023-05-09T14:26:34.002Z,8.07
2023-05-09T14:29:41.068Z,8.55
2023-05-09T14:32:45.937Z,8.70
2023-05-09T14:35:49.726Z,7.88
2023-05-09T14:38:52.976Z,9.32
2023-05-09T14:41:56.199Z,8.52
2023-05-09T14:44:59.807Z,8.98
2023-05-09T14:48:04.823Z,8.45
2023-05-09T14:51:08.469Z,8.73
2023-05-09T14:54:11.712Z,8.77
2023-05-09T14:57:14.971Z,8.07
2023-05-09T15:00:21.728Z,8.00
2023-05-09T15:03:27.584Z,8.40
2023-05-09T15:06:30.858Z,7.90
2023-05-09T15:09:34.154Z,7.60
2023-05-09T15:12:37.397Z,8.05
2023-05-09T15:15:40.672Z,7.20
2023-05-09T15:18:45.980Z,7.50
2023-05-09T15:21:49.282Z,6.43
2023-05-09T15:24:52.801Z,6.45
2023-05-09T15:27:56.661Z,6.28
2023-05-09T15:31:00.261Z,6.68
2023-05-09T15:34:05.029Z,5.53
2023-05-09T15:37:08.301Z,5.28
2023-05-09T15:40:11.832Z,6.75
2023-05-09T15:43:15.085Z,6.35
2023-05-09T15:46:18.420Z,5.88
2023-05-09T15:49:22.664Z,5.97
2023-05-09T15:52:25.857Z,5.68
2023-05-09T15:55:28.833Z,5.43
2023-05-09T15:58:32.025Z,6.65
2023-05-09T16:01:35.519Z,6.00
2023-05-09T16:04:39.769Z,6.20
2023-05-09T16:07:46.248Z,6.28
2023-05-09T16:10:49.231Z,6.13
2023-05-09T16:13:52.149Z,6.78
2023-05-09T16:16:54.995Z,5.35
2023-05-09T16:19:59.916Z,6.00
2023-05-09T16:23:03.140Z,6.38
2023-05-09T16:26:06.099Z,5.88
2023-05-09T16:29:09.191Z,5.57
2023-05-09T16:32:12.278Z,5.85
2023-05-09T16:35:16.835Z,5.70
2023-05-09T16:38:19.825Z,6.78
2023-05-09T16:41:22.980Z,5.82
2023-05-09T16:44:26.453Z,6.13
2023-05-09T16:47:29.356Z,5.93
2023-05-09T16:50:33.740Z,5.75
2023-05-09T16:53:37.126Z,5.88
2023-05-09T16:56:40.021Z,5.30
2023-05-09T16:59:43.043Z,5.97
2023-05-09T17:02:45.908Z,5.80
2023-05-09T17:05:51.248Z,6.00
2023-05-09T17:08:54.660Z,5.82
2023-05-09T17:11:57.500Z,5.75
2023-05-09T17:15:00.523Z,5.40
2023-05-09T17:18:03.487Z,6.32
2023-05-09T17:21:07.965Z,5.15
2023-05-09T17:24:10.955Z,5.82
2023-05-09T17:27:13.830Z,5.22
2023-05-09T17:30:18.340Z,5.68
2023-05-09T17:33:22.201Z,6.20
2023-05-09T17:36:26.712Z,5.55
2023-05-09T17:39:29.544Z,5.60
2023-05-09T17:42:32.957Z,5.88
2023-05-09T17:45:36.023Z,6.20
2023-05-09T17:48:38.912Z,5.75
2023-05-09T17:51:43.139Z,5.57
2023-05-09T17:54:46.731Z,6.28
2023-05-09T17:57:49.585Z,6.30
2023-05-09T18:00:54.048Z,6.50
2023-05-09T18:03:57.092Z,6.75
2023-05-09T18:07:01.513Z,6.60
2023-05-09T18:10:05.156Z,6.40
2023-05-09T18:13:08.210Z,6.93
2023-05-09T18:16:11.185Z,6.40
2023-05-09T18:19:14.067Z,7.30
2023-05-09T18:22:19.234Z,7.18
2023-05-09T18:25:22.276Z,5.65
2023-05-09T18:28:26.338Z,5.97
2023-05-09T18:31:29.495Z,6.07
2023-05-09T18:34:32.343Z,6.30
2023-05-09T18:37:36.855Z,5.95
2023-05-09T18:40:39.714Z,5.28
2023-05-09T18:43:46.186Z,5.50
2023-05-09T18:46:49.163Z,5.90
2023-05-09T18:49:52.016Z,5.43
2023-05-09T18:52:56.319Z,5.50
2023-05-09T18:55:59.168Z,6.35
2023-05-09T18:59:02.153Z,4.40
2023-05-09T19:02:04.997Z,5.85
2023-05-09T19:05:08.915Z,6.15
2023-05-09T19:08:13.082Z,6.10
2023-05-09T19:11:16.107Z,5.00
2023-05-09T19:14:19.417Z,5.37
2023-05-09T19:17:22.321Z,5.38
2023-05-09T19:20:25.216Z,5.80
2023-05-09T19:23:29.648Z,6.47
2023-05-09T19:26:32.656Z,5.18
2023-05-09T19:29:35.781Z,5.60
2023-05-09T19:32:38.723Z,4.88
2023-05-09T19:35:42.712Z,5.50
2023-05-09T19:38:46.938Z,5.35
2023-05-09T19:41:49.767Z,5.47
2023-05-09T19:44:53.167Z,5.32
2023-05-09T19:47:56.601Z,6.10
2023-05-09T19:51:00.155Z,6.18
2023-05-09T19:54:04.504Z,6.28
2023-05-09T19:57:08.051Z,4.80
2023-05-09T20:00:11.905Z,5.80
2023-05-09T20:03:15.530Z,6.07
2023-05-09T20:06:18.789Z,5.50
2023-05-09T20:09:23.030Z,4.93
2023-05-09T20:12:27.296Z,6.18
2023-05-09T20:15:32.089Z,5.93
2023-05-09T20:18:35.075Z,5.70
2023-05-09T20:21:37.928Z,5.63
2023-05-09T20:24:42.304Z,6.13
2023-05-09T20:27:45.258Z,5.37
2023-05-09T20:30:48.385Z,5.45
2023-05-09T20:33:51.381Z,6.03
2023-05-09T20:36:55.038Z,5.67
2023-05-09T20:39:59.287Z,6.00
2023-05-09T20:43:02.129Z,6.20
2023-05-09T20:46:05.193Z,6.40
2023-05-09T20:49:08.895Z,6.83
2023-05-09T20:52:11.739Z,5.83
2023-05-09T20:55:15.994Z,6.78
2023-05-09T20:58:18.863Z,6.87
2023-05-09T21:01:21.861Z,6.83
2023-05-09T21:04:24.755Z,7.10
2023-05-09T21:07:28.036Z,7.40
2023-05-09T21:10:32.746Z,6.97
2023-05-09T21:13:37.204Z,5.00
2023-05-09T21:16:40.490Z,5.20
2023-05-09T21:19:43.759Z,4.33
2023-05-09T21:22:46.574Z,3.43
2023-05-09T21:25:50.729Z,3.30
2023-05-09T21:28:53.543Z,2.50
2023-05-09T21:31:56.396Z,1.33
2023-05-09T21:34:59.232Z,1.30
2023-05-09T21:38:02.050Z,1.67
2023-05-09T21:41:06.363Z,1.30
2023-05-09T21:44:11.123Z,1.03
2023-05-09T21:47:14.045Z,1.00
2023-05-09T21:50:17.541Z,0.70
2023-05-09T21:53:21.074Z,0.70
2023-05-09T21:56:25.660Z,0.70
2023-05-09T21:59:28.897Z,0.60
2023-05-09T22:02:32.479Z,0.30
2023-05-09T22:05:35.780Z,0.30
2023-05-09T22:08:39.008Z,0.70
2023-05-09T22:11:43.609Z,0.50
2023-05-09T22:14:55.766Z,0.40
2023-05-09T22:18:00.160Z,0.60
2023-05-09T22:21:03.509Z,0.60
2023-05-09T22:24:07.632Z,0.50
2023-05-09T22:27:12.507Z,0.47
2023-05-09T22:30:16.114Z,1.03
2023-05-09T22:33:19.549Z,0.80
2023-05-09T22:36:22.846Z,0.53
2023-05-09T22:39:26.849Z,0.63
2023-05-09T22:42:31.470Z,0.97
2023-05-09T22:45:34.698Z,1.30
2023-05-09T22:48:37.942Z,1.00
2023-05-09T22:51:41.194Z,1.00
2023-05-09T22:54:44.446Z,0.80
2023-05-09T22:57:48.596Z,0.83
2023-05-09T23:00:51.503Z,0.70
2023-05-09T23:03:54.354Z,0.90
2023-05-09T23:06:57.178Z,0.60
2023-05-09T23:10:00.258Z,0.60
2023-05-09T23:13:04.812Z,0.60
2023-05-09T23:16:07.909Z,0.57
2023-05-09T23:19:11.732Z,0.70
2023-05-09T23:22:14.665Z,0.57
2023-05-09T23:25:17.553Z,0.50
2023-05-09T23:28:24.997Z,0.57
2023-05-09T23:31:28.075Z,0.70
2023-05-09T23:34:31.282Z,0.50
2023-05-09T23:37:34.195Z,0.70
2023-05-09T23:40:38.400Z,0.93
2023-05-09T23:43:43.375Z,0.80
2023-05-09T23:46:46.255Z,0.60
2023-05-09T23:49:49.133Z,0.70
2023-05-09T23:52:52.060Z,0.40
2023-05-09T23:55:55.061Z,0.50
2023-05-09T23:58:59.277Z,0.33
